Time;durP1;ratioP1;P1;durP2;ratioP2;P2;SDS_P1;SDS_P2;PMS_P1;PMS_P2;Temp;Humidity;BMP_temperature;BMP_pressure;BME280_temperature;BME280_humidity;BME280_pressure;Samples;Min_cycle;Max_cycle;Signal;HPM_P1;HPM_P2
2022/04/18 00:00:07;;;;;;;3.00;2.17;;;9.20;97.90;;;;;;5044787;28;20237;-78
2022/04/18 00:02:34;;;;;;;3.60;2.45;;;9.10;98.30;;;;;;5046149;28;20224;-79
2022/04/18 00:05:01;;;;;;;2.58;2.38;;;9.10;98.10;;;;;;5045964;28;20198;-79
2022/04/18 00:07:28;;;;;;;2.70;2.45;;;9.00;98.30;;;;;;5043714;28;20230;-78
2022/04/18 00:09:57;;;;;;;2.15;2.00;;;8.90;98.30;;;;;;5045714;28;20215;-78
2022/04/18 00:12:24;;;;;;;3.10;2.25;;;8.90;98.30;;;;;;5039683;28;20698;-79
2022/04/18 00:14:51;;;;;;;2.53;2.33;;;8.90;98.30;;;;;;5045354;28;20199;-78
2022/04/18 00:17:18;;;;;;;2.45;2.25;;;8.90;98.60;;;;;;5043185;28;20215;-77
2022/04/18 00:19:45;;;;;;;2.63;2.25;;;8.90;98.40;;;;;;5044880;28;20199;-78
2022/04/18 00:22:12;;;;;;;2.67;2.38;;;8.70;98.80;;;;;;5043148;28;20296;-78
2022/04/18 00:24:39;;;;;;;2.58;2.35;;;8.60;99.10;;;;;;5041711;28;20206;-78
2022/04/18 00:27:07;;;;;;;2.72;2.50;;;8.60;99.30;;;;;;5044665;28;20215;-78
2022/04/18 00:29:34;;;;;;;2.92;2.13;;;8.70;99.20;;;;;;5044695;28;20226;-77
2022/04/18 00:32:01;;;;;;;2.42;2.20;;;8.70;99.10;;;;;;5043345;28;20215;-78
2022/04/18 00:34:28;;;;;;;2.78;2.58;;;8.70;99.20;;;;;;5044133;28;20202;-78
2022/04/18 00:36:56;;;;;;;4.43;2.80;;;8.70;99.30;;;;;;5045350;28;20222;-78
2022/04/18 00:39:23;;;;;;;2.28;2.10;;;8.60;99.10;;;;;;5041442;28;20206;-78
2022/04/18 00:41:50;;;;;;;2.35;2.15;;;8.70;98.90;;;;;;5044543;28;20219;-78
2022/04/18 00:44:18;;;;;;;2.50;2.30;;;8.80;98.80;;;;;;5044195;28;20551;-79
2022/04/18 00:46:45;;;;;;;4.13;2.50;;;8.80;98.90;;;;;;5044383;28;20223;-78
2022/04/18 00:49:12;;;;;;;2.63;2.42;;;8.80;98.90;;;;;;5040787;28;20227;-79
2022/04/18 00:51:39;;;;;;;2.97;2.60;;;8.80;99.00;;;;;;5046081;28;20295;-78
2022/04/18 00:54:07;;;;;;;3.03;2.72;;;8.70;99.10;;;;;;5046092;28;20199;-79
2022/04/18 00:56:34;;;;;;;3.17;2.72;;;8.60;99.20;;;;;;5040658;28;20235;-78
2022/04/18 00:59:01;;;;;;;3.35;2.70;;;8.50;99.30;;;;;;5046325;28;20211;-78
2022/04/18 01:01:30;;;;;;;3.47;2.63;;;8.60;99.70;;;;;;5048932;28;20199;-78
2022/04/18 01:03:57;;;;;;;3.25;2.17;;;8.60;99.40;;;;;;5046712;28;20609;-79
2022/04/18 01:06:24;;;;;;;3.45;2.70;;;8.60;99.80;;;;;;5045465;28;20210;-78
2022/04/18 01:08:52;;;;;;;3.28;2.50;;;8.60;99.40;;;;;;5048086;28;20688;-78
2022/04/18 01:11:19;;;;;;;2.72;2.53;;;8.60;99.40;;;;;;5047093;28;20646;-78
2022/04/18 01:13:47;;;;;;;3.78;2.95;;;8.60;99.40;;;;;;5046258;28;20658;-78
2022/04/18 01:16:21;;;;;;;2.58;2.38;;;8.60;99.40;;;;;;5043103;28;20678;-78
2022/04/18 01:18:49;;;;;;;4.28;2.60;;;8.60;99.50;;;;;;5045075;28;20222;-79
2022/04/18 01:21:19;;;;;;;3.08;2.55;;;8.50;99.40;;;;;;5045737;28;20195;-79
2022/04/18 01:23:47;;;;;;;6.00;2.78;;;8.50;99.40;;;;;;5042073;28;20777;-78
2022/04/18 01:28:59;;;;;;;3.47;2.50;;;8.60;99.50;;;;;;5046674;28;20225;-78
2022/04/18 01:31:26;;;;;;;2.67;2.47;;;8.50;99.40;;;;;;5047780;28;20205;-78
2022/04/18 01:33:53;;;;;;;3.67;2.70;;;8.50;99.40;;;;;;5024630;28;20219;-78
2022/04/18 01:36:22;;;;;;;3.00;2.80;;;8.50;99.50;;;;;;5027994;28;20199;-78
2022/04/18 01:38:49;;;;;;;2.88;2.67;;;8.50;99.40;;;;;;5027007;28;20236;-78
2022/04/18 01:41:16;;;;;;;2.83;2.63;;;8.40;99.60;;;;;;5024225;28;20207;-79
2022/04/18 01:43:43;;;;;;;2.63;2.42;;;8.40;99.50;;;;;;5022934;28;20610;-79
2022/04/18 01:46:10;;;;;;;3.10;2.80;;;8.40;99.70;;;;;;5020835;28;20200;-78
2022/04/18 01:48:37;;;;;;;3.28;2.40;;;8.40;99.60;;;;;;5022325;28;20285;-79
2022/04/18 01:51:04;;;;;;;2.80;2.63;;;8.40;99.60;;;;;;5027369;28;20215;-79
2022/04/18 01:53:33;;;;;;;2.70;2.45;;;8.40;99.70;;;;;;5024879;28;20219;-78
2022/04/18 01:56:00;;;;;;;2.65;2.45;;;8.30;99.60;;;;;;5027470;28;20573;-78
2022/04/18 01:58:27;;;;;;;4.05;2.55;;;8.30;99.80;;;;;;5026856;28;20817;-78
2022/04/18 02:00:54;;;;;;;2.70;2.50;;;8.30;99.60;;;;;;5025787;28;20604;-78
2022/04/18 02:03:22;;;;;;;2.58;2.38;;;8.30;99.60;;;;;;5036136;28;20219;-79
2022/04/18 02:05:52;;;;;;;2.78;2.58;;;8.30;99.50;;;;;;5045019;28;20195;-78
2022/04/18 02:08:20;;;;;;;4.18;3.15;;;8.30;99.50;;;;;;5045305;28;20269;-78
2022/04/18 02:10:48;;;;;;;4.72;2.60;;;8.20;99.80;;;;;;5046373;28;20218;-78
2022/04/18 02:13:16;;;;;;;3.75;3.33;;;8.10;99.90;;;;;;5044857;28;20229;-78
2022/04/18 02:15:43;;;;;;;3.55;3.25;;;8.10;99.90;;;;;;5044047;28;20273;-78
2022/04/18 02:18:10;;;;;;;2.90;2.60;;;8.10;99.90;;;;;;5045651;28;20306;-78
2022/04/18 02:20:37;;;;;;;2.55;2.35;;;8.20;99.80;;;;;;5046547;28;20202;-78
2022/04/18 02:23:05;;;;;;;4.40;2.70;;;8.20;99.70;;;;;;5043328;28;20242;-77
2022/04/18 02:25:32;;;;;;;3.28;3.00;;;8.20;99.70;;;;;;5040617;28;20291;-77
2022/04/18 02:28:00;;;;;;;3.50;2.80;;;8.10;99.70;;;;;;5042986;28;20227;-77
2022/04/18 02:30:27;;;;;;;3.35;3.05;;;8.00;99.90;;;;;;5043970;28;20737;-79
2022/04/18 02:32:54;;;;;;;4.88;3.22;;;8.00;99.90;;;;;;5043858;28;20218;-79
2022/04/18 02:35:23;;;;;;;2.60;2.40;;;7.90;99.90;;;;;;5044464;28;20203;-78
2022/04/18 02:37:51;;;;;;;4.13;2.75;;;7.90;99.90;;;;;;5044200;28;20221;-78
2022/04/18 02:40:18;;;;;;;2.67;2.47;;;7.80;99.90;;;;;;5044736;28;20199;-78
2022/04/18 02:42:46;;;;;;;2.83;2.35;;;7.80;99.90;;;;;;5045244;28;20238;-78
2022/04/18 02:45:18;;;;;;;2.58;2.35;;;7.80;99.90;;;;;;5045600;28;20203;-77
2022/04/18 02:47:46;;;;;;;2.72;2.20;;;7.80;99.90;;;;;;5040683;28;20684;-78
2022/04/18 02:50:13;;;;;;;2.40;2.20;;;7.80;99.90;;;;;;5041968;28;20636;-78
2022/04/18 02:52:40;;;;;;;2.92;2.58;;;7.80;99.90;;;;;;5044193;28;20216;-77
2022/04/18 02:55:11;;;;;;;3.75;2.53;;;7.70;99.90;;;;;;5045220;28;20268;-78
2022/04/18 02:57:39;;;;;;;2.90;2.65;;;7.70;99.90;;;;;;5042656;28;20641;-78
2022/04/18 03:00:08;;;;;;;3.00;2.60;;;7.60;99.90;;;;;;5044486;28;20194;-79
2022/04/18 03:02:36;;;;;;;3.00;2.70;;;7.60;99.90;;;;;;5044162;28;20303;-78
2022/04/18 03:05:04;;;;;;;2.90;2.70;;;7.60;99.90;;;;;;5046555;28;20245;-78
2022/04/18 03:07:32;;;;;;;2.85;2.65;;;7.60;99.90;;;;;;5043108;28;20231;-78
2022/04/18 03:09:59;;;;;;;2.90;2.38;;;7.50;99.90;;;;;;5041184;28;20226;-79
2022/04/18 03:12:26;;;;;;;3.28;2.72;;;7.40;99.90;;;;;;5043231;28;20226;-77
2022/04/18 03:14:53;;;;;;;3.15;2.92;;;7.40;99.90;;;;;;5041902;28;20199;-78
2022/04/18 03:17:20;;;;;;;2.40;2.20;;;7.30;99.90;;;;;;5043047;28;20226;-78
2022/04/18 03:19:49;;;;;;;4.43;3.20;;;7.20;99.90;;;;;;5044921;28;20217;-78
2022/04/18 03:22:16;;;;;;;4.00;3.60;;;7.20;99.90;;;;;;5045556;28;20199;-78
2022/04/18 03:24:43;;;;;;;3.83;3.10;;;7.20;99.90;;;;;;5039446;28;20607;-77
2022/04/18 03:27:11;;;;;;;3.20;2.90;;;7.30;99.90;;;;;;5046131;28;20195;-79
2022/04/18 03:29:38;;;;;;;4.03;3.40;;;7.40;99.90;;;;;;5053377;22;20224;-84
2022/04/18 03:32:06;;;;;;;5.85;3.40;;;7.40;99.90;;;;;;5034905;28;20207;-84
2022/04/18 03:34:33;;;;;;;3.67;2.45;;;7.50;99.90;;;;;;5014129;28;20208;-80
2022/04/18 03:39:52;;;;;;;2.75;2.55;;;7.40;99.90;;;;;;5001943;28;20278;-81
2022/04/18 03:42:28;;;;;;;3.00;2.80;;;7.40;99.90;;;;;;4997327;28;20194;-84
2022/04/18 03:44:57;;;;;;;2.72;2.50;;;7.50;99.90;;;;;;5017677;28;20226;-81
2022/04/18 03:47:24;;;;;;;4.28;2.80;;;7.50;99.90;;;;;;5017327;28;20193;-80
2022/04/18 03:49:52;;;;;;;2.70;2.50;;;7.60;99.90;;;;;;5018391;28;20332;-84
2022/04/18 03:52:20;;;;;;;4.20;2.63;;;7.60;99.90;;;;;;5017376;28;20277;-81
2022/04/18 03:54:47;;;;;;;3.00;2.67;;;7.50;99.90;;;;;;4998586;28;20228;-82
2022/04/18 03:57:14;;;;;;;3.75;3.40;;;7.40;99.90;;;;;;4999709;28;20235;-86
2022/04/18 03:59:42;;;;;;;4.28;3.28;;;7.30;99.90;;;;;;4997321;28;20323;-82
2022/04/18 04:02:09;;;;;;;3.05;2.80;;;7.20;99.90;;;;;;5003767;28;20208;-85
2022/04/18 04:04:37;;;;;;;3.47;3.17;;;7.10;99.90;;;;;;4996442;28;20232;-85
2022/04/18 04:07:05;;;;;;;3.33;3.10;;;7.00;99.90;;;;;;4999051;28;20233;-81
2022/04/18 04:09:34;;;;;;;3.05;2.85;;;6.90;99.90;;;;;;4996954;28;20225;-84
2022/04/18 04:12:03;;;;;;;3.38;3.08;;;6.90;99.90;;;;;;4996067;28;20200;-83
2022/04/18 04:14:30;;;;;;;3.83;3.00;;;6.90;99.90;;;;;;4997041;28;20720;-81
2022/04/18 04:16:57;;;;;;;3.00;2.80;;;6.80;99.90;;;;;;4998220;28;20296;-84
2022/04/18 04:19:25;;;;;;;4.13;2.95;;;6.70;99.90;;;;;;5009245;28;20220;-81
2022/04/18 04:21:52;;;;;;;4.55;2.95;;;6.70;99.90;;;;;;5017993;28;20207;-83
2022/04/18 04:24:20;;;;;;;3.78;2.88;;;6.70;99.90;;;;;;5012783;28;20220;-84
2022/04/18 04:26:49;;;;;;;3.20;2.97;;;6.70;99.90;;;;;;5013422;28;20224;-81
2022/04/18 04:29:16;;;;;;;3.00;2.72;;;6.70;99.90;;;;;;5009262;28;20224;-84
2022/04/18 04:31:43;;;;;;;3.65;3.03;;;6.60;99.90;;;;;;5014373;28;20580;-82
2022/04/18 04:34:12;;;;;;;2.50;2.30;;;6.60;99.90;;;;;;5014086;28;20566;-86
2022/04/18 04:36:41;;;;;;;2.90;2.65;;;6.50;99.90;;;;;;5015231;28;20207;-82
2022/04/18 04:39:08;;;;;;;3.30;3.10;;;6.40;99.90;;;;;;5001114;28;20738;-85
2022/04/18 04:41:36;;;;;;;2.92;2.60;;;6.40;99.90;;;;;;4991415;28;20200;-87
2022/04/18 04:44:05;;;;;;;5.18;3.13;;;6.40;99.90;;;;;;4993488;28;20275;-81
2022/04/18 04:46:33;;;;;;;4.53;3.20;;;6.40;99.90;;;;;;4996173;28;20228;-83
2022/04/18 04:49:00;;;;;;;3.83;2.60;;;6.30;99.90;;;;;;4991920;28;20231;-84
2022/04/18 04:51:27;;;;;;;3.83;3.42;;;6.20;99.90;;;;;;4992489;28;20575;-82
2022/04/18 04:53:54;;;;;;;4.30;3.45;;;6.20;99.90;;;;;;4990401;28;20224;-85
2022/04/18 04:56:23;;;;;;;4.18;3.75;;;6.20;99.90;;;;;;4994484;28;20207;-81
2022/04/18 04:58:51;;;;;;;5.13;3.88;;;6.20;99.90;;;;;;4989020;28;20359;-82
2022/04/18 05:01:19;;;;;;;4.72;3.60;;;6.20;99.90;;;;;;4992720;28;20192;-83
2022/04/18 05:03:46;;;;;;;6.10;4.10;;;6.20;99.90;;;;;;4993276;28;20667;-87
2022/04/18 05:06:14;;;;;;;3.72;3.28;;;6.30;99.90;;;;;;4990225;28;20197;-82
2022/04/18 05:08:41;;;;;;;3.40;3.20;;;6.40;99.90;;;;;;4997446;28;20256;-87
2022/04/18 05:11:08;;;;;;;3.35;3.05;;;6.70;99.90;;;;;;4996932;28;20212;-84
2022/04/18 05:13:36;;;;;;;3.63;3.33;;;7.10;99.90;;;;;;4995501;28;20227;-79
2022/04/18 05:16:03;;;;;;;4.07;3.28;;;7.30;99.90;;;;;;4994317;28;20208;-82
2022/04/18 05:18:32;;;;;;;3.22;2.92;;;7.50;99.90;;;;;;4988399;28;20698;-80
2022/04/18 05:20:59;;;;;;;3.65;3.25;;;7.70;99.90;;;;;;4989544;28;20716;-80
2022/04/18 05:23:26;;;;;;;4.03;3.45;;;8.00;99.90;;;;;;4987064;28;20460;-83
2022/04/18 05:25:53;;;;;;;3.83;3.38;;;8.30;99.90;;;;;;4993031;28;20230;-81
2022/04/18 05:28:20;;;;;;;3.53;3.22;;;8.40;99.90;;;;;;4987674;28;20283;-84
2022/04/18 05:30:47;;;;;;;5.05;3.22;;;8.60;99.90;;;;;;4997437;28;20213;-81
2022/04/18 05:33:14;;;;;;;3.83;2.97;;;8.80;99.90;;;;;;4998510;28;20223;-85
2022/04/18 05:35:43;;;;;;;4.95;3.33;;;8.90;99.90;;;;;;5015269;28;20200;-85
2022/04/18 05:38:10;;;;;;;4.63;3.22;;;9.00;99.90;;;;;;5020000;28;20223;-83
2022/04/18 05:40:37;;;;;;;3.80;3.47;;;9.00;99.90;;;;;;5016476;28;20254;-84
2022/04/18 05:43:04;;;;;;;5.97;3.17;;;9.20;99.90;;;;;;5018004;28;20199;-81
2022/04/18 05:45:31;;;;;;;5.45;3.15;;;9.40;99.90;;;;;;5016042;28;20207;-87
2022/04/18 05:47:58;;;;;;;3.10;2.90;;;9.60;99.90;;;;;;5016124;28;20711;-86
2022/04/18 05:50:25;;;;;;;3.30;3.00;;;9.80;99.90;;;;;;5017261;28;20220;-89
2022/04/18 05:52:54;;;;;;;4.57;2.78;;;9.90;99.90;;;;;;5015539;28;20230;-84
2022/04/18 05:55:21;;;;;;;3.90;3.30;;;10.10;99.90;;;;;;5014498;28;20201;-85
2022/04/18 05:57:49;;;;;;;3.17;2.88;;;10.30;99.90;;;;;;5018219;28;20227;-85
2022/04/18 06:00:17;;;;;;;3.13;2.70;;;10.50;99.90;;;;;;5018167;28;20255;-88
2022/04/18 06:02:44;;;;;;;3.63;3.33;;;10.80;99.90;;;;;;5015031;28;20207;-82
2022/04/18 06:05:12;;;;;;;4.28;3.25;;;10.90;99.90;;;;;;5016601;28;20238;-86
2022/04/18 06:07:42;;;;;;;3.63;3.15;;;11.00;99.90;;;;;;5016118;28;20205;-89
2022/04/18 06:10:11;;;;;;;4.03;3.20;;;11.10;99.90;;;;;;5007373;28;20282;-81
2022/04/18 06:12:38;;;;;;;3.22;2.97;;;11.20;99.90;;;;;;5010413;28;20200;-86
2022/04/18 06:15:06;;;;;;;5.50;3.30;;;11.30;99.90;;;;;;5012348;28;20224;-85
2022/04/18 06:17:34;;;;;;;3.28;2.92;;;11.30;99.90;;;;;;5013469;28;20204;-88
2022/04/18 06:20:01;;;;;;;4.10;3.25;;;11.50;99.90;;;;;;5012361;28;20247;-85
2022/04/18 06:22:28;;;;;;;3.35;3.05;;;11.70;99.70;;;;;;5008980;28;20200;-88
2022/04/18 06:24:55;;;;;;;4.80;3.03;;;11.90;99.30;;;;;;5014461;28;20251;-79
2022/04/18 06:27:24;;;;;;;4.97;3.85;;;12.10;99.60;;;;;;5005507;28;20205;-77
2022/04/18 06:29:51;;;;;;;5.38;3.13;;;12.50;99.90;;;;;;5004342;28;20283;-81
2022/04/18 06:32:18;;;;;;;5.85;3.55;;;12.70;99.90;;;;;;5003641;28;20228;-75
2022/04/18 06:34:46;;;;;;;3.60;3.38;;;12.90;99.90;;;;;;4999306;28;20683;-76
2022/04/18 06:37:13;;;;;;;6.20;3.60;;;13.00;99.90;;;;;;5006422;28;20647;-78
2022/04/18 06:39:40;;;;;;;3.67;2.70;;;12.90;99.40;;;;;;5006850;28;20310;-79
2022/04/18 06:42:07;;;;;;;3.53;2.83;;;12.60;98.80;;;;;;5010308;28;20667;-78
2022/04/18 06:44:36;;;;;;;4.65;3.05;;;12.50;99.40;;;;;;5007361;28;20216;-79
2022/04/18 06:47:03;;;;;;;3.35;2.88;;;12.50;99.50;;;;;;5008581;28;20254;-75
2022/04/18 06:49:30;;;;;;;5.47;3.00;;;12.40;99.20;;;;;;5001258;28;20220;-80
2022/04/18 06:51:57;;;;;;;3.97;3.17;;;12.40;99.30;;;;;;5007056;28;20247;-80
2022/04/18 06:54:24;;;;;;;3.30;3.00;;;12.50;98.50;;;;;;5003967;28;22080;-79
2022/04/18 06:57:00;;;;;;;3.15;2.85;;;12.60;98.30;;;;;;5008708;28;20200;-79
2022/04/18 06:59:28;;;;;;;2.83;2.63;;;12.70;98.10;;;;;;5005241;28;20219;-80
2022/04/18 07:01:57;;;;;;;3.55;3.03;;;12.90;98.10;;;;;;5006014;28;20208;-81
2022/04/18 07:04:25;;;;;;;3.63;2.97;;;12.90;97.60;;;;;;5004517;28;20738;-77
2022/04/18 07:06:52;;;;;;;3.67;3.03;;;12.80;97.40;;;;;;5006414;28;20196;-79
2022/04/18 07:09:19;;;;;;;4.68;3.10;;;12.90;97.40;;;;;;5005084;28;20236;-78
2022/04/18 07:11:46;;;;;;;4.13;3.33;;;12.90;97.70;;;;;;5003353;28;20216;-77
2022/04/18 07:14:13;;;;;;;4.15;2.80;;;13.10;97.10;;;;;;5006607;28;20228;-78
2022/04/18 07:16:40;;;;;;;3.60;3.08;;;13.30;96.90;;;;;;5011349;28;20200;-78
2022/04/18 07:19:09;;;;;;;3.60;2.85;;;13.50;97.20;;;;;;5013761;28;20267;-77
2022/04/18 07:21:36;;;;;;;3.53;2.75;;;13.60;96.70;;;;;;5011027;28;21621;-78
2022/04/18 07:24:03;;;;;;;5.15;2.97;;;13.50;96.80;;;;;;5011827;28;20279;-77
2022/04/18 07:26:30;;;;;;;3.53;3.22;;;13.50;96.80;;;;;;5015728;28;20231;-77
2022/04/18 07:28:57;;;;;;;3.17;2.85;;;13.50;96.70;;;;;;5012953;28;20224;-77
2022/04/18 07:31:24;;;;;;;3.03;2.72;;;13.60;95.90;;;;;;5014910;28;20232;-77
2022/04/18 07:33:52;;;;;;;3.90;3.20;;;13.80;95.50;;;;;;5015931;28;20220;-78
2022/04/18 07:36:20;;;;;;;4.25;3.08;;;13.80;96.40;;;;;;5012774;28;20203;-79
2022/04/18 07:38:50;;;;;;;3.67;3.00;;;13.90;96.60;;;;;;5012136;28;20228;-78
2022/04/18 07:41:18;;;;;;;3.45;3.15;;;14.10;95.80;;;;;;5013077;28;20200;-79
2022/04/18 07:43:45;;;;;;;5.40;3.25;;;14.20;95.80;;;;;;5015264;28;20269;-77
2022/04/18 07:46:12;;;;;;;4.32;2.95;;;14.10;95.40;;;;;;5007737;28;20211;-79
2022/04/18 07:48:40;;;;;;;3.42;3.13;;;13.70;95.80;;;;;;5015905;28;20231;-77
2022/04/18 07:53:52;;;;;;;5.55;3.17;;;13.80;95.80;;;;;;5011945;28;20230;-80
2022/04/18 07:56:21;;;;;;;3.53;3.17;;;13.90;95.20;;;;;;5018324;28;20283;-80
2022/04/18 07:58:48;;;;;;;2.92;2.72;;;14.10;95.00;;;;;;5014498;28;20266;-80
2022/04/18 08:01:15;;;;;;;3.20;2.90;;;14.30;95.20;;;;;;5016748;28;20196;-78
2022/04/18 08:03:42;;;;;;;4.38;2.90;;;14.50;94.90;;;;;;5015302;28;20223;-77
2022/04/18 08:06:09;;;;;;;3.97;2.70;;;14.40;94.70;;;;;;5014886;28;20193;-77
2022/04/18 08:08:36;;;;;;;3.80;2.90;;;14.30;94.90;;;;;;5016664;28;20225;-82
2022/04/18 08:11:05;;;;;;;4.80;3.22;;;14.20;95.30;;;;;;5014671;28;20220;-78
2022/04/18 08:13:32;;;;;;;3.58;2.97;;;14.40;95.00;;;;;;5010797;28;20228;-77
2022/04/18 08:15:59;;;;;;;3.30;2.97;;;14.50;94.60;;;;;;5011553;28;20193;-78
2022/04/18 08:18:27;;;;;;;3.95;3.10;;;14.60;94.60;;;;;;5015530;28;20556;-77
2022/04/18 08:20:54;;;;;;;5.90;3.38;;;14.80;95.30;;;;;;5008417;28;20231;-76
2022/04/18 08:23:21;;;;;;;7.07;3.10;;;14.80;94.80;;;;;;5011973;28;20200;-77
2022/04/18 08:25:48;;;;;;;4.65;3.13;;;14.80;94.10;;;;;;5013808;28;20557;-77
2022/04/18 08:28:16;;;;;;;3.85;3.00;;;14.70;94.10;;;;;;5009372;28;20247;-77
2022/04/18 08:30:43;;;;;;;3.65;3.30;;;14.60;94.10;;;;;;5012816;28;20193;-80
2022/04/18 08:33:10;;;;;;;4.80;3.10;;;14.50;94.40;;;;;;5014299;28;20724;-77
2022/04/18 08:35:37;;;;;;;3.50;2.97;;;14.60;95.40;;;;;;5011992;28;20224;-76
2022/04/18 08:38:05;;;;;;;4.32;3.50;;;14.80;94.60;;;;;;5014396;28;20200;-77
2022/04/18 08:40:33;;;;;;;5.95;3.30;;;14.80;94.20;;;;;;5013724;28;20224;-75
2022/04/18 08:43:00;;;;;;;4.13;3.45;;;15.00;94.50;;;;;;5013049;28;20292;-79
2022/04/18 08:45:29;;;;;;;7.03;3.30;;;15.10;93.90;;;;;;5011701;28;20734;-77
2022/04/18 08:53:29;;;;;;;3.85;2.67;;;15.20;93.90;;;;;;5010632;28;20214;-81
2022/04/18 08:55:58;;;;;;;5.40;2.75;;;15.10;93.00;;;;;;5009288;28;20200;-75
2022/04/18 08:58:27;;;;;;;4.65;3.25;;;15.30;93.20;;;;;;5010697;28;20573;-77
2022/04/18 09:00:57;;;;;;;3.10;2.78;;;15.50;92.70;;;;;;5011977;28;20437;-80
2022/04/18 09:03:24;;;;;;;5.95;3.00;;;15.50;93.40;;;;;;5008895;28;20207;-77
2022/04/18 09:06:08;;;;;;;5.50;3.15;;;15.70;92.80;;;;;;5011422;28;20501;-80
2022/04/18 09:08:36;;;;;;;3.88;2.65;;;15.70;91.90;;;;;;5012631;28;20251;-80
2022/04/18 09:11:03;;;;;;;4.00;3.20;;;15.90;92.00;;;;;;5012294;28;20726;-79
2022/04/18 09:13:31;;;;;;;3.70;3.03;;;15.90;91.50;;;;;;5012225;28;20243;-76
2022/04/18 09:16:00;;;;;;;4.40;2.75;;;16.10;91.80;;;;;;5016587;28;20555;-79
2022/04/18 09:18:28;;;;;;;5.47;3.13;;;15.70;91.80;;;;;;5014662;28;20228;-77
2022/04/18 09:20:57;;;;;;;4.35;3.15;;;15.70;92.40;;;;;;5014640;28;20200;-82
2022/04/18 09:23:26;;;;;;;3.42;2.80;;;15.70;92.60;;;;;;5017826;28;20287;-80
2022/04/18 09:25:55;;;;;;;5.03;3.28;;;15.80;92.50;;;;;;4992537;28;20213;-84
2022/04/18 09:31:03;;;;;;;5.32;2.83;;;16.00;91.80;;;;;;5019686;28;20224;-77
2022/04/18 09:33:41;;;;;;;3.55;2.88;;;15.90;91.80;;;;;;5021887;28;20230;-77
2022/04/18 09:36:11;;;;;;;5.00;3.08;;;16.00;92.10;;;;;;5026951;28;20242;-78
2022/04/18 09:38:41;;;;;;;3.40;2.55;;;16.40;92.40;;;;;;5032794;28;20277;-77
2022/04/18 09:41:08;;;;;;;4.32;2.58;;;16.30;91.20;;;;;;5023724;28;20562;-76
2022/04/18 09:43:43;;;;;;;3.35;2.88;;;16.60;91.80;;;;;;5021780;28;20679;-78
2022/04/18 09:46:13;;;;;;;4.45;2.35;;;16.90;91.10;;;;;;5025811;28;20227;-78
2022/04/18 09:48:41;;;;;;;5.57;3.15;;;16.90;91.50;;;;;;5021402;28;20212;-78
2022/04/18 09:51:11;;;;;;;3.50;2.63;;;17.10;90.70;;;;;;5020021;28;20216;-78
2022/04/18 09:53:39;;;;;;;4.18;2.72;;;17.10;91.00;;;;;;5020944;28;20192;-78
2022/04/18 09:56:07;;;;;;;4.05;2.53;;;17.20;90.80;;;;;;5022787;28;20231;-77
2022/04/18 09:58:35;;;;;;;3.22;2.70;;;17.30;90.30;;;;;;5033775;28;20199;-77
2022/04/18 10:01:05;;;;;;;3.15;2.55;;;16.80;90.20;;;;;;5025061;28;20271;-78
2022/04/18 10:03:34;;;;;;;2.60;2.40;;;16.70;90.70;;;;;;5025305;28;22006;-78
2022/04/18 10:06:02;;;;;;;2.72;2.53;;;16.60;90.00;;;;;;5025783;28;20232;-78
2022/04/18 10:08:30;;;;;;;3.00;2.42;;;16.80;89.10;;;;;;5022357;28;20295;-78
2022/04/18 10:10:58;;;;;;;2.70;2.50;;;16.90;90.00;;;;;;5029090;28;20222;-77
2022/04/18 10:13:26;;;;;;;2.60;2.15;;;17.00;88.10;;;;;;5013086;28;22061;-75
2022/04/18 10:15:53;;;;;;;4.57;2.22;;;17.00;87.80;;;;;;5014326;28;20224;-77
2022/04/18 10:18:21;;;;;;;3.28;2.90;;;17.20;88.20;;;;;;5014812;28;20204;-78
2022/04/18 10:21:09;;;;;;;3.50;2.63;;;17.30;88.60;;;;;;5009223;28;20732;-78
2022/04/18 10:24:24;;;;;;;3.03;2.50;;;17.30;84.30;;;;;;5011223;28;20278;-76
2022/04/18 10:27:18;;;;;;;4.25;2.55;;;16.90;85.80;;;;;;5022075;28;20301;-77
2022/04/18 10:29:50;;;;;;;4.82;2.40;;;17.00;89.00;;;;;;5030221;28;20226;-78
2022/04/18 10:32:22;;;;;;;2.63;2.40;;;17.30;88.60;;;;;;5029109;28;20243;-77
2022/04/18 10:34:50;;;;;;;3.28;2.58;;;17.50;87.70;;;;;;5031500;28;20207;-77
2022/04/18 10:37:23;;;;;;;2.63;2.10;;;17.40;87.30;;;;;;5031386;28;20633;-77
2022/04/18 10:39:58;;;;;;;4.55;2.55;;;17.40;87.30;;;;;;5032903;28;20224;-78
2022/04/18 10:42:30;;;;;;;4.53;2.95;;;17.70;90.20;;;;;;5026177;28;20272;-77
2022/04/18 10:45:05;;;;;;;3.45;2.70;;;17.80;86.70;;;;;;5020631;28;21352;-77
2022/04/18 10:48:06;;;;;;;3.17;2.10;;;17.90;87.80;;;;;;5010039;28;20224;-77
2022/04/18 10:50:38;;;;;;;2.60;2.40;;;17.80;84.10;;;;;;5008512;28;20231;-76
2022/04/18 10:53:12;;;;;;;3.03;2.38;;;17.40;85.70;;;;;;5009653;28;20228;-77
2022/04/18 10:55:40;;;;;;;3.30;2.40;;;17.40;86.60;;;;;;5009060;28;20196;-77
2022/04/18 10:58:15;;;;;;;3.15;2.28;;;17.50;88.40;;;;;;5058865;28;20213;-77
2022/04/18 11:00:49;;;;;;;2.13;1.83;;;17.80;87.10;;;;;;5055598;28;20610;-77
2022/04/18 11:03:44;;;;;;;2.20;1.80;;;17.80;84.80;;;;;;5050860;28;20238;-78
2022/04/18 11:06:12;;;;;;;2.40;2.08;;;18.10;86.70;;;;;;5052532;28;20286;-77
2022/04/18 11:08:40;;;;;;;2.42;2.10;;;18.30;84.90;;;;;;5052460;28;20233;-77
2022/04/18 11:11:08;;;;;;;2.90;2.10;;;18.50;84.50;;;;;;5055026;28;20198;-77
2022/04/18 11:13:35;;;;;;;3.05;2.10;;;18.30;83.10;;;;;;5059003;28;20215;-76
2022/04/18 11:16:44;;;;;;;5.32;2.40;;;18.30;84.50;;;;;;5055320;28;20190;-77
2022/04/18 11:19:18;;;;;;;2.50;2.15;;;18.20;84.30;;;;;;5051743;28;20706;-77
2022/04/18 11:22:08;;;;;;;2.47;2.13;;;18.40;84.30;;;;;;5061165;28;20194;-77
2022/04/18 11:24:39;;;;;;;1.92;1.65;;;18.30;83.30;;;;;;5055615;28;20599;-77
2022/04/18 11:27:11;;;;;;;5.28;2.47;;;18.40;84.10;;;;;;5053373;28;20207;-77
2022/04/18 11:29:39;;;;;;;4.40;2.28;;;18.50;82.40;;;;;;5055555;28;20263;-77
2022/04/18 11:32:07;;;;;;;2.97;1.83;;;18.40;82.60;;;;;;5056736;28;20635;-76
2022/04/18 11:34:36;;;;;;;2.03;1.83;;;18.50;82.10;;;;;;5057733;28;20752;-76
2022/04/18 11:37:08;;;;;;;3.92;1.83;;;18.50;82.20;;;;;;5055300;28;20198;-76
2022/04/18 11:39:45;;;;;;;1.77;1.63;;;18.50;80.80;;;;;;5057664;28;20235;-77
2022/04/18 11:42:16;;;;;;;4.35;1.88;;;18.60;80.40;;;;;;5047374;28;20236;-77
2022/04/18 11:44:44;;;;;;;1.85;1.67;;;18.60;81.60;;;;;;5056305;28;20238;-77
2022/04/18 11:47:13;;;;;;;5.38;2.38;;;18.60;79.90;;;;;;5050799;28;20195;-76
2022/04/18 11:49:41;;;;;;;2.78;1.80;;;18.70;81.10;;;;;;5054992;28;20234;-77
2022/04/18 11:52:18;;;;;;;5.60;2.13;;;18.60;82.60;;;;;;5058249;28;20613;-77
2022/04/18 11:54:59;;;;;;;3.72;1.70;;;18.70;81.00;;;;;;5052246;28;20300;-78
2022/04/18 11:57:28;;;;;;;1.83;1.73;;;18.80;79.60;;;;;;5054594;28;20233;-77
2022/04/18 11:59:56;;;;;;;2.65;1.70;;;18.80;78.80;;;;;;5059109;28;20275;-77
2022/04/18 12:08:01;;;;;;;2.00;1.60;;;19.20;78.20;;;;;;5030532;28;20231;-77
2022/04/18 12:10:31;;;;;;;2.10;1.80;;;19.20;77.60;;;;;;5057062;28;20226;-76
2022/04/18 12:13:00;;;;;;;2.25;1.65;;;19.10;77.70;;;;;;5055253;28;20211;-77
2022/04/18 12:15:29;;;;;;;2.72;1.80;;;19.10;78.70;;;;;;5052029;28;20222;-77
2022/04/18 12:17:57;;;;;;;2.47;1.60;;;19.10;77.00;;;;;;5054347;28;20564;-77
2022/04/18 12:20:27;;;;;;;2.15;1.58;;;19.10;76.60;;;;;;5058692;28;20705;-77
2022/04/18 12:22:58;;;;;;;2.45;1.60;;;19.10;78.20;;;;;;5055748;28;20191;-77
2022/04/18 12:25:27;;;;;;;2.42;1.52;;;19.10;78.50;;;;;;5053724;28;20481;-77
2022/04/18 12:27:57;;;;;;;2.40;1.77;;;19.20;77.60;;;;;;5053585;28;20256;-76
2022/04/18 12:30:25;;;;;;;2.25;1.80;;;19.20;76.90;;;;;;5056265;28;20593;-77
2022/04/18 12:32:54;;;;;;;2.63;1.88;;;19.20;75.70;;;;;;5056237;28;20214;-77
2022/04/18 12:35:40;;;;;;;3.83;1.73;;;19.10;74.50;;;;;;5050997;28;20640;-77
2022/04/18 12:38:09;;;;;;;2.42;1.73;;;19.10;75.30;;;;;;5057787;28;20277;-77
2022/04/18 12:40:39;;;;;;;1.70;1.35;;;19.20;75.30;;;;;;5057119;28;20227;-77
2022/04/18 12:43:09;;;;;;;4.03;1.90;;;19.30;75.30;;;;;;5049738;28;20281;-77
2022/04/18 12:45:47;;;;;;;2.58;1.60;;;19.30;75.00;;;;;;5056054;28;20277;-77
2022/04/18 12:48:15;;;;;;;2.13;1.45;;;19.40;75.90;;;;;;5055335;28;20252;-77
2022/04/18 12:50:42;;;;;;;1.52;1.42;;;19.70;76.70;;;;;;5057997;28;20249;-77
2022/04/18 12:53:09;;;;;;;3.35;1.65;;;19.90;74.80;;;;;;5060061;28;20681;-77
2022/04/18 12:55:36;;;;;;;1.98;1.40;;;19.80;74.60;;;;;;5057455;28;20234;-77
2022/04/18 12:58:14;;;;;;;1.70;1.60;;;19.80;73.10;;;;;;5059358;28;20202;-77
2022/04/18 13:00:46;;;;;;;4.22;1.60;;;19.70;72.10;;;;;;5058691;28;20762;-77
2022/04/18 13:03:14;;;;;;;3.45;1.45;;;19.70;72.20;;;;;;5052875;28;20553;-77
2022/04/18 13:05:43;;;;;;;1.73;1.38;;;19.80;73.60;;;;;;5053495;28;20222;-77
2022/04/18 13:08:11;;;;;;;2.10;1.90;;;19.80;73.10;;;;;;5056300;28;20619;-77
2022/04/18 13:10:39;;;;;;;2.15;1.55;;;19.70;71.80;;;;;;5054413;28;20222;-77
2022/04/18 13:13:08;;;;;;;1.63;1.50;;;19.70;72.80;;;;;;5060817;28;20230;-77
2022/04/18 13:15:36;;;;;;;2.50;1.55;;;19.80;72.80;;;;;;5057424;28;20215;-77
2022/04/18 13:18:08;;;;;;;2.10;1.38;;;19.90;72.20;;;;;;5059064;28;20283;-77
2022/04/18 13:20:36;;;;;;;2.42;1.42;;;19.90;72.10;;;;;;5058050;28;20218;-77